John F Kennedy International Airport
KJFK : now visible

Airfield :











YOU CAN JOIN US ON...

 
LOGIN :

Register | Disclaimer

   EN    FR    IT 

 









Legend :    VFR   Marginal VFR   IFR   Intensive IFR   Very Intensive IFR
Visi :
Ceiling :
>= 8 km
>= 3000ft
5 to 8 km
1000 to 3000 ft
1500m to 5 km
500 to 1000 ft
800 to 1500m
200 to 500 ft
< 800m
< 200 ft
Symbols :   Thunderstorms  Fog  Heavy snow  Heavy precipitations  Wind > 20 kt







- Airport Elevation : 13 ft
- IATA code : JFK


KJFK - John F Kennedy International

CURRENT METAR :
  • 261451Z 23009KT 10SM FEW040 FEW250 25/19 A2995 RMK AO2 SLP143 T02500189 58002

EXPIRED METARs :
  • 261351Z 24008KT 10SM FEW050 FEW250 23/18 A2996 RMK AO2 SLP144 T02280183
  • 261251Z 27007KT 10SM FEW012 FEW100 SCT250 22/18 A2996 RMK AO2 SLP144 T02170178
  • 261206Z 26010KT 10SM SCT012 SCT100 BKN250 20/18 A2995 RMK AO2 T02000178
  • 261151Z 27011KT 10SM BKN013 BKN100 BKN250 19/17 A2996 RMK AO2 SLP145 60000 70003 T01890172 10189 20150 58001

TAF KJFK
Valid from the 26 at 15:00 until the 27 at 18:00 UTC


261440Z 2615/2718 25010KT P6SM FEW050 SCT250
FM261800 23013G20KT P6SM FEW050 SCT250
FM262300 26012KT P6SM SCT060 BKN200
PROB30 2700/2702 -TSRA SCT030 BKN050CB
FM270200 31009KT P6SM SCT060 BKN150
FM270500 36006KT P6SM SCT060 BKN150
FM271300 03008KT P6SM SCT060 BKN250
KZNY FIR / North America



MET'MAP, your aeronautical weather chart ! - Copyright ORBIFLY December 2007 - Disclaimer

ORBIFLY MET'MAP TEAM :

Programming & Development : Alexandra Zaïnal
Concept & Development : Baudouin d'Aumeries
Co-Development & Prog : Marc-Olivier Méhu
Technical & hardware support : Manuel Goepfert

Contact : metmap@orbifly.com




SOURCES & CREDITS :

   NOAA       Earth
Advisory